Terminal Aerodrome Forecast
Issued by NWS Tulsa, OK

Home | Current Version | Previous Version | Text Only | Print | Product List | Glossary On
Versions: 1 2 3 4 5 6 7 8 9 10 11 12 13 14 15 16
544
FTPQ31 PGUM 232330
TAFTSA
TAF
PTSA 232330Z 2400/2424 21010G16KT P6SM VCSH SCT016 BKN050 OVC120
      TEMPO 2400/2404 5SM SHRA BKN014 OVC050=

USA.gov is the U.S. government's official web portal to all federal, state and local government web resources and services.